createdAt,value
2023-05-17T00:00:08.894Z,0.00
2023-05-17T00:01:08.822Z,0.00
2023-05-17T00:02:08.848Z,0.00
2023-05-17T00:03:08.827Z,0.00
2023-05-17T00:04:08.872Z,0.00
2023-05-17T00:05:08.808Z,0.00
2023-05-17T00:06:08.802Z,0.00
2023-05-17T00:07:08.781Z,0.00
2023-05-17T00:08:08.783Z,0.00
2023-05-17T00:09:08.722Z,0.00
2023-05-17T00:10:08.718Z,0.00
2023-05-17T00:11:08.704Z,0.00
2023-05-17T00:12:08.734Z,0.00
2023-05-17T00:13:08.683Z,0.00
2023-05-17T00:14:08.685Z,0.00
2023-05-17T00:15:08.665Z,0.00
2023-05-17T00:16:08.689Z,0.00
2023-05-17T00:17:08.695Z,0.00
2023-05-17T00:18:08.713Z,0.00
2023-05-17T00:19:08.769Z,0.00
2023-05-17T00:20:08.639Z,0.00
2023-05-17T00:21:08.591Z,0.00
2023-05-17T00:22:08.635Z,0.00
2023-05-17T00:23:08.577Z,0.00
2023-05-17T00:24:08.573Z,0.00
2023-05-17T00:25:08.555Z,0.00
2023-05-17T00:26:08.597Z,0.00
2023-05-17T00:27:08.551Z,0.00
2023-05-17T00:28:08.524Z,0.00
2023-05-17T00:29:08.512Z,0.00
2023-05-17T00:30:08.525Z,0.00
2023-05-17T00:31:08.530Z,0.00
2023-05-17T00:32:08.514Z,0.00
2023-05-17T00:33:08.484Z,0.00
2023-05-17T00:34:08.465Z,0.00
2023-05-17T00:35:08.473Z,0.00
2023-05-17T00:36:08.466Z,0.00
2023-05-17T00:37:08.454Z,0.00
2023-05-17T00:38:08.425Z,0.00
2023-05-17T00:39:08.407Z,0.00
2023-05-17T00:40:08.429Z,0.00
2023-05-17T00:41:08.405Z,0.00
2023-05-17T00:42:08.386Z,0.00
2023-05-17T00:43:08.376Z,0.00
2023-05-17T00:44:08.357Z,0.00
2023-05-17T00:45:08.349Z,0.00
2023-05-17T00:46:08.339Z,0.00
2023-05-17T00:47:08.444Z,0.00
2023-05-17T00:48:08.492Z,0.00
2023-05-17T00:49:08.304Z,0.00
2023-05-17T00:50:08.303Z,0.00
2023-05-17T00:51:08.293Z,0.00
2023-05-17T00:52:08.276Z,0.00
2023-05-17T00:53:08.253Z,0.00
2023-05-17T00:54:08.274Z,0.00
2023-05-17T00:55:08.244Z,0.00
2023-05-17T00:56:08.228Z,0.00
2023-05-17T00:57:08.204Z,0.00
2023-05-17T00:58:08.203Z,0.00
2023-05-17T00:59:08.202Z,0.00
2023-05-17T01:00:08.235Z,0.00
2023-05-17T01:01:08.158Z,0.00
2023-05-17T01:02:08.184Z,0.00
2023-05-17T01:03:08.289Z,0.00
2023-05-17T01:04:08.185Z,0.00
2023-05-17T01:05:08.157Z,0.00
2023-05-17T01:06:08.123Z,0.00
2023-05-17T01:07:08.102Z,0.00
2023-05-17T01:08:08.120Z,0.00
2023-05-17T01:09:08.073Z,0.00
2023-05-17T01:10:08.114Z,0.00
2023-05-17T01:11:08.080Z,0.00
2023-05-17T01:12:08.031Z,0.00
2023-05-17T01:13:08.068Z,0.00
2023-05-17T01:14:08.030Z,0.00
2023-05-17T01:15:08.045Z,0.00
2023-05-17T01:16:08.013Z,0.00
2023-05-17T01:17:07.998Z,0.00
2023-05-17T01:18:08.194Z,0.00
2023-05-17T01:19:08.120Z,0.00
2023-05-17T01:20:08.201Z,0.00
2023-05-17T01:21:08.001Z,0.00
2023-05-17T01:22:07.934Z,0.00
2023-05-17T01:23:07.978Z,0.00
2023-05-17T01:24:07.951Z,0.00
2023-05-17T01:25:07.911Z,0.00
2023-05-17T01:26:07.902Z,0.00
2023-05-17T01:27:07.910Z,0.00
2023-05-17T01:28:07.901Z,0.00
2023-05-17T01:29:07.876Z,0.00
2023-05-17T01:30:07.865Z,0.00
2023-05-17T01:31:07.845Z,0.00
2023-05-17T01:32:07.912Z,0.00
2023-05-17T01:33:07.971Z,0.00
2023-05-17T01:34:07.810Z,0.00
2023-05-17T01:35:07.809Z,0.00
2023-05-17T01:36:07.846Z,0.00
2023-05-17T01:37:07.796Z,0.00
2023-05-17T01:38:07.754Z,0.00
2023-05-17T01:39:07.768Z,0.00
2023-05-17T01:40:07.751Z,0.00
2023-05-17T01:41:07.743Z,0.00
2023-05-17T01:42:07.794Z,0.00
2023-05-17T01:43:07.719Z,0.00
2023-05-17T01:44:07.700Z,0.00
2023-05-17T01:45:07.709Z,0.00
2023-05-17T01:46:07.709Z,0.00
2023-05-17T01:47:07.695Z,0.00
2023-05-17T01:48:07.774Z,0.00
2023-05-17T01:49:07.697Z,0.00
2023-05-17T01:50:07.638Z,0.00
2023-05-17T01:51:07.635Z,0.00
2023-05-17T01:52:07.647Z,0.00
2023-05-17T01:53:07.661Z,0.00
2023-05-17T01:54:07.585Z,0.00
2023-05-17T01:55:07.596Z,0.00
2023-05-17T01:56:07.814Z,0.00
2023-05-17T01:57:07.637Z,0.00
2023-05-17T01:58:07.572Z,0.00
2023-05-17T01:59:07.583Z,0.00
2023-05-17T02:00:07.527Z,0.00
2023-05-17T02:01:07.588Z,0.00
2023-05-17T02:02:07.519Z,0.00
2023-05-17T02:03:07.544Z,0.00
2023-05-17T02:04:07.548Z,0.00
2023-05-17T02:05:07.568Z,0.00
2023-05-17T02:06:07.462Z,0.00
2023-05-17T02:07:07.461Z,0.00
2023-05-17T02:08:07.449Z,0.00
2023-05-17T02:09:07.468Z,0.00
2023-05-17T02:10:07.426Z,0.00
2023-05-17T02:11:07.414Z,0.00
2023-05-17T02:12:07.426Z,0.00
2023-05-17T02:13:07.401Z,0.00
2023-05-17T02:14:07.439Z,0.00
2023-05-17T02:15:07.370Z,0.00
2023-05-17T02:16:07.376Z,0.00
2023-05-17T02:17:07.364Z,0.00
2023-05-17T02:18:07.470Z,0.00
2023-05-17T02:19:07.397Z,0.00
2023-05-17T02:20:07.316Z,0.00
2023-05-17T02:21:07.336Z,0.00
2023-05-17T02:22:07.312Z,0.00
2023-05-17T02:23:07.295Z,0.00
2023-05-17T02:24:07.315Z,0.00
2023-05-17T02:25:07.268Z,0.00
2023-05-17T02:26:07.256Z,0.00
2023-05-17T02:27:07.258Z,0.00
2023-05-17T02:28:07.234Z,0.00
2023-05-17T02:29:07.283Z,0.00
2023-05-17T02:30:07.196Z,0.00
2023-05-17T02:31:07.206Z,0.00
2023-05-17T02:32:07.195Z,0.00
2023-05-17T02:33:07.252Z,0.00
2023-05-17T02:34:07.185Z,0.00
2023-05-17T02:35:07.191Z,0.00
2023-05-17T02:36:07.180Z,0.00
2023-05-17T02:37:07.158Z,0.00
2023-05-17T02:38:07.152Z,0.00
2023-05-17T02:39:07.126Z,0.00
2023-05-17T02:40:07.136Z,0.00
2023-05-17T02:41:07.104Z,0.00
2023-05-17T02:42:07.076Z,0.00
2023-05-17T02:43:07.075Z,0.00
2023-05-17T02:44:07.066Z,0.00
2023-05-17T02:45:07.091Z,0.00
2023-05-17T02:46:07.048Z,0.00
2023-05-17T02:47:07.048Z,0.00
2023-05-17T02:48:07.143Z,0.00
2023-05-17T02:49:07.018Z,0.00
2023-05-17T02:50:07.030Z,0.00
2023-05-17T02:51:07.026Z,0.00
2023-05-17T02:52:06.976Z,0.00
2023-05-17T02:53:07.054Z,0.00
2023-05-17T02:54:06.942Z,0.00
2023-05-17T02:55:06.947Z,0.00
2023-05-17T02:56:06.948Z,0.00
2023-05-17T02:57:06.953Z,0.00
2023-05-17T02:58:06.923Z,0.00
2023-05-17T02:59:06.887Z,1.00
2023-05-17T03:00:06.896Z,0.00
2023-05-17T03:01:06.888Z,0.00
2023-05-17T03:02:06.945Z,0.00
2023-05-17T03:03:06.921Z,0.00
2023-05-17T03:04:06.890Z,0.00
2023-05-17T03:05:06.810Z,1.00
2023-05-17T03:06:06.838Z,0.00
2023-05-17T03:07:07.308Z,0.00
2023-05-17T03:08:06.806Z,0.00
2023-05-17T03:09:06.776Z,3.00
2023-05-17T03:10:06.718Z,2.00
2023-05-17T03:11:06.769Z,1.00
2023-05-17T03:12:06.710Z,5.00
2023-05-17T03:13:06.705Z,4.00
2023-05-17T03:14:06.723Z,2.00
2023-05-17T03:15:06.708Z,2.00
2023-05-17T03:16:06.653Z,6.00
2023-05-17T03:17:06.674Z,4.00
2023-05-17T03:18:06.847Z,5.00
2023-05-17T03:19:06.820Z,7.00
2023-05-17T03:20:06.639Z,7.00
2023-05-17T03:21:06.644Z,6.00
2023-05-17T03:22:06.599Z,11.00
2023-05-17T03:23:06.592Z,13.00
2023-05-17T03:24:06.608Z,16.00
2023-05-17T03:25:06.588Z,20.00
2023-05-17T03:26:06.575Z,17.00
2023-05-17T03:27:06.679Z,20.00
2023-05-17T03:28:06.566Z,25.00
2023-05-17T03:29:06.545Z,27.00
2023-05-17T03:30:06.529Z,30.00
2023-05-17T03:31:06.590Z,33.00
2023-05-17T03:32:06.507Z,39.00
2023-05-17T03:33:06.568Z,43.00
2023-05-17T03:34:06.496Z,52.00
2023-05-17T03:35:06.454Z,52.00
2023-05-17T03:36:06.469Z,55.00
2023-05-17T03:37:06.484Z,65.00
2023-05-17T03:38:06.412Z,72.00
2023-05-17T03:39:06.420Z,79.00
2023-05-17T03:40:06.427Z,85.00
2023-05-17T03:41:06.409Z,89.00
2023-05-17T03:42:06.411Z,96.00
2023-05-17T03:43:06.376Z,108.00
2023-05-17T03:44:06.357Z,115.00
2023-05-17T03:45:06.368Z,121.00
2023-05-17T03:46:06.402Z,133.00
2023-05-17T03:47:06.338Z,142.00
2023-05-17T03:48:06.421Z,150.00
2023-05-17T03:49:06.338Z,160.00
2023-05-17T03:50:06.289Z,169.00
2023-05-17T03:51:06.281Z,180.00
2023-05-17T03:52:06.266Z,192.00
2023-05-17T03:53:06.303Z,203.00
2023-05-17T03:54:06.254Z,217.00
2023-05-17T03:55:06.245Z,228.00
2023-05-17T03:56:06.294Z,237.00
2023-05-17T03:57:06.246Z,246.00
2023-05-17T03:58:06.210Z,259.00
2023-05-17T03:59:06.204Z,271.00
2023-05-17T04:00:06.229Z,284.00
2023-05-17T04:01:06.195Z,301.00
2023-05-17T04:02:06.185Z,312.00
2023-05-17T04:03:06.174Z,328.00
2023-05-17T04:04:06.165Z,339.00
2023-05-17T04:05:06.230Z,346.00
2023-05-17T04:06:06.166Z,361.00
2023-05-17T04:07:06.129Z,379.00
2023-05-17T04:08:06.096Z,395.00
2023-05-17T04:09:06.102Z,404.00
2023-05-17T04:10:06.078Z,418.00
2023-05-17T04:11:06.087Z,432.00
2023-05-17T04:12:06.060Z,448.00
2023-05-17T04:13:06.066Z,458.00
2023-05-17T04:14:06.032Z,472.00
2023-05-17T04:15:06.047Z,485.00
2023-05-17T04:16:06.046Z,503.00
2023-05-17T04:17:06.020Z,507.00
2023-05-17T04:18:06.073Z,526.00
2023-05-17T04:19:06.089Z,554.00
2023-05-17T04:20:05.987Z,566.00
2023-05-17T04:21:05.966Z,558.00
2023-05-17T04:22:05.974Z,561.00
2023-05-17T04:23:06.016Z,579.00
2023-05-17T04:24:05.959Z,597.00
2023-05-17T04:25:05.934Z,622.00
2023-05-17T04:26:05.919Z,678.00
2023-05-17T04:27:05.932Z,662.00
2023-05-17T04:28:05.885Z,638.00
2023-05-17T04:29:05.893Z,612.00
2023-05-17T04:30:05.887Z,742.00
2023-05-17T04:31:05.851Z,750.00
2023-05-17T04:32:05.849Z,730.00
2023-05-17T04:33:05.942Z,728.00
2023-05-17T04:34:05.979Z,736.00
2023-05-17T04:35:05.843Z,731.00
2023-05-17T04:36:05.847Z,635.00
2023-05-17T04:37:05.810Z,939.00
2023-05-17T04:38:05.784Z,802.00
2023-05-17T04:39:06.389Z,803.00
2023-05-17T04:40:05.791Z,716.00
2023-05-17T04:41:05.778Z,612.00
2023-05-17T04:42:05.826Z,845.00
2023-05-17T04:43:05.760Z,837.00
2023-05-17T04:44:05.734Z,896.00
2023-05-17T04:45:05.720Z,928.00
2023-05-17T04:46:05.802Z,1276.00
2023-05-17T04:47:05.712Z,844.00
2023-05-17T04:48:05.764Z,559.00
2023-05-17T04:49:05.759Z,910.00
2023-05-17T04:50:05.655Z,955.00
2023-05-17T04:51:05.674Z,999.00
2023-05-17T04:52:06.301Z,1010.00
2023-05-17T04:53:05.683Z,1018.00
2023-05-17T04:54:05.607Z,1024.00
2023-05-17T04:55:05.632Z,1048.00
2023-05-17T04:56:05.600Z,1062.00
2023-05-17T04:57:05.586Z,1066.00
2023-05-17T04:58:05.584Z,1113.00
2023-05-17T04:59:05.632Z,1111.00
2023-05-17T05:00:05.548Z,1140.00
2023-05-17T05:01:05.560Z,1130.00
2023-05-17T05:02:05.546Z,1153.00
2023-05-17T05:03:05.705Z,1193.00
2023-05-17T05:04:05.686Z,1195.00
2023-05-17T05:05:05.607Z,1212.00
2023-05-17T05:06:05.596Z,1222.00
2023-05-17T05:07:05.501Z,1220.00
2023-05-17T05:08:05.485Z,1204.00
2023-05-17T05:09:05.531Z,1211.00
2023-05-17T05:10:05.462Z,1250.00
2023-05-17T05:11:05.453Z,1288.00
2023-05-17T05:12:05.426Z,1309.00
2023-05-17T05:13:05.423Z,1306.00
2023-05-17T05:14:05.414Z,1350.00
2023-05-17T05:15:05.404Z,1340.00
2023-05-17T05:16:05.448Z,1353.00
2023-05-17T05:17:05.391Z,1358.00
2023-05-17T05:18:05.491Z,1368.00
2023-05-17T05:19:05.616Z,1354.00
2023-05-17T05:20:05.376Z,1376.00
2023-05-17T05:21:05.325Z,1428.00
2023-05-17T05:22:05.339Z,1438.00
2023-05-17T05:23:05.332Z,1449.00
2023-05-17T05:24:05.327Z,1446.00
2023-05-17T05:25:05.354Z,1490.00
2023-05-17T05:26:05.266Z,1474.00
2023-05-17T05:27:07.062Z,1523.00
2023-05-17T05:28:05.267Z,1498.00
2023-05-17T05:29:05.297Z,1520.00
2023-05-17T05:30:05.240Z,1526.00
2023-05-17T05:31:05.282Z,1546.00
2023-05-17T05:32:05.225Z,1557.00
2023-05-17T05:33:05.260Z,1583.00
2023-05-17T05:34:05.378Z,1601.00
2023-05-17T05:35:05.286Z,1607.00
2023-05-17T05:36:05.186Z,1591.00
2023-05-17T05:37:05.152Z,1630.00
2023-05-17T05:38:05.226Z,1637.00
2023-05-17T05:39:06.726Z,1601.00
2023-05-17T05:40:05.197Z,1660.00
2023-05-17T05:41:05.109Z,1646.00
2023-05-17T05:42:05.371Z,1631.00
2023-05-17T05:43:05.115Z,1642.00
2023-05-17T05:44:05.104Z,1697.00
2023-05-17T05:45:05.106Z,1705.00
2023-05-17T05:46:05.149Z,1643.00
2023-05-17T05:47:05.096Z,1724.00
2023-05-17T05:48:05.181Z,1723.00
2023-05-17T05:49:05.094Z,1765.00
2023-05-17T05:50:05.024Z,1740.00
2023-05-17T05:51:05.004Z,1762.00
2023-05-17T05:52:05.060Z,1737.00
2023-05-17T05:53:17.416Z,1784.00
2023-05-17T05:54:04.989Z,1789.00
2023-05-17T05:55:05.072Z,1804.00
2023-05-17T05:56:04.981Z,1836.00
2023-05-17T05:57:04.927Z,1812.00
2023-05-17T05:58:04.967Z,1819.00
2023-05-17T05:59:04.979Z,1864.00
2023-05-17T06:00:04.960Z,1839.00
2023-05-17T06:01:06.518Z,1864.00
2023-05-17T06:02:04.930Z,1884.00
2023-05-17T06:03:04.942Z,1910.00
2023-05-17T06:04:04.881Z,1908.00
2023-05-17T06:05:04.903Z,1890.00
2023-05-17T06:06:04.980Z,1838.00
2023-05-17T06:07:04.941Z,1850.00
2023-05-17T06:08:05.003Z,2349.00
2023-05-17T06:09:04.816Z,1221.00
2023-05-17T06:10:04.853Z,2042.00
2023-05-17T06:11:05.066Z,2013.00
2023-05-17T06:12:04.829Z,1871.00
2023-05-17T06:13:04.768Z,1983.00
2023-05-17T06:14:04.804Z,1927.00
2023-05-17T06:15:04.800Z,2127.00
2023-05-17T06:16:04.775Z,1988.00
2023-05-17T06:17:04.759Z,1940.00
2023-05-17T06:18:04.900Z,1973.00
2023-05-17T06:19:04.902Z,2041.00
2023-05-17T06:20:05.061Z,2053.00
2023-05-17T06:21:04.684Z,2085.00
2023-05-17T06:22:04.812Z,1931.00
2023-05-17T06:23:04.698Z,1852.00
2023-05-17T06:24:05.252Z,2277.00
2023-05-17T06:25:04.653Z,2257.00
2023-05-17T06:26:04.651Z,1826.00
2023-05-17T06:27:04.653Z,1628.00
2023-05-17T06:28:04.676Z,1595.00
2023-05-17T06:29:04.636Z,2073.00
2023-05-17T06:30:06.453Z,1795.00
2023-05-17T06:31:04.681Z,1881.00
2023-05-17T06:32:04.586Z,3008.00
2023-05-17T06:33:06.130Z,1748.00
2023-05-17T06:34:04.747Z,2700.00
2023-05-17T06:35:04.559Z,2136.00
2023-05-17T06:36:04.671Z,1991.00
2023-05-17T06:37:04.543Z,2034.00
2023-05-17T06:38:04.511Z,2130.00
2023-05-17T06:39:04.540Z,2384.00
2023-05-17T06:41:04.463Z,2118.00
2023-05-17T06:42:04.503Z,2520.00
2023-05-17T06:43:04.457Z,2178.00
2023-05-17T06:44:04.441Z,4691.00
2023-05-17T06:45:04.441Z,994.00
2023-05-17T06:46:04.440Z,4676.00
2023-05-17T06:47:04.405Z,973.00
2023-05-17T06:48:04.545Z,4857.00
2023-05-17T06:49:04.621Z,2051.00
2023-05-17T06:50:04.382Z,1891.00
2023-05-17T06:51:04.539Z,1281.00
2023-05-17T06:52:04.385Z,1227.00
2023-05-17T06:53:04.323Z,1262.00
2023-05-17T06:54:04.355Z,4231.00
2023-05-17T06:55:10.346Z,2026.00
2023-05-17T06:56:04.327Z,1366.00
2023-05-17T06:57:04.397Z,2753.00
2023-05-17T06:58:04.278Z,3634.00
2023-05-17T06:59:04.298Z,2372.00
2023-05-17T07:00:04.286Z,2239.00
2023-05-17T07:01:04.244Z,1187.00
2023-05-17T07:02:04.244Z,3755.00
2023-05-17T07:03:04.324Z,1845.00
2023-05-17T07:04:04.304Z,2481.00
2023-05-17T07:05:04.336Z,2104.00
2023-05-17T07:06:04.200Z,1835.00
2023-05-17T07:07:04.181Z,1703.00
2023-05-17T07:08:04.195Z,2130.00
2023-05-17T07:09:04.163Z,2743.00
2023-05-17T07:10:04.150Z,2511.00
2023-05-17T07:11:04.146Z,2256.00
2023-05-17T07:12:04.145Z,2270.00
2023-05-17T07:13:04.312Z,1262.00
2023-05-17T07:14:04.162Z,1617.00
2023-05-17T07:15:04.120Z,5289.00
2023-05-17T07:16:04.094Z,2981.00
2023-05-17T07:17:04.080Z,2465.00
2023-05-17T07:18:04.157Z,2025.00
2023-05-17T07:19:04.181Z,1455.00
2023-05-17T07:20:04.199Z,5894.00
2023-05-17T07:21:04.052Z,3142.00
2023-05-17T07:22:04.038Z,2245.00
2023-05-17T07:23:04.044Z,2397.00
2023-05-17T07:24:04.008Z,2175.00
2023-05-17T07:25:03.996Z,2981.00
2023-05-17T07:26:04.020Z,3521.00
2023-05-17T07:27:04.016Z,2312.00
2023-05-17T07:28:03.969Z,1885.00
2023-05-17T07:29:04.010Z,1221.00
2023-05-17T07:30:03.969Z,2637.00
2023-05-17T07:31:03.938Z,6902.00
2023-05-17T07:32:03.935Z,2765.00
2023-05-17T07:33:03.991Z,1174.00
2023-05-17T07:34:03.999Z,4396.00
2023-05-17T07:35:03.888Z,2209.00
2023-05-17T07:36:03.964Z,1850.00
2023-05-17T07:37:03.906Z,1747.00
2023-05-17T07:38:03.890Z,2071.00
2023-05-17T07:39:03.855Z,2278.00
2023-05-17T07:40:03.876Z,2501.00
2023-05-17T07:41:03.824Z,2161.00
2023-05-17T07:42:05.439Z,2339.00
2023-05-17T07:43:04.327Z,2612.00
2023-05-17T07:44:03.822Z,2745.00
2023-05-17T07:45:03.804Z,2671.00
2023-05-17T07:46:03.780Z,1392.00
2023-05-17T07:47:03.828Z,5373.00
2023-05-17T07:48:03.882Z,4870.00
2023-05-17T07:49:03.860Z,2868.00
2023-05-17T07:50:03.751Z,2465.00
2023-05-17T07:51:03.728Z,1370.00
2023-05-17T07:52:03.728Z,3811.00
2023-05-17T07:53:03.696Z,5798.00
2023-05-17T07:54:03.699Z,2590.00
2023-05-17T07:55:03.677Z,1743.00
2023-05-17T07:56:03.684Z,3550.00
2023-05-17T07:57:03.706Z,6250.00
2023-05-17T07:58:03.643Z,3892.00
2023-05-17T07:59:03.708Z,2647.00
2023-05-17T08:00:03.631Z,4191.00
2023-05-17T08:01:03.615Z,2352.00
2023-05-17T08:02:03.625Z,1865.00
2023-05-17T08:03:03.693Z,7285.00
2023-05-17T08:04:03.606Z,3454.00
2023-05-17T08:05:03.851Z,2253.00
2023-05-17T08:06:03.598Z,3248.00
2023-05-17T08:07:03.551Z,1744.00
2023-05-17T08:08:03.561Z,7219.00
2023-05-17T08:09:03.628Z,1810.00
2023-05-17T08:10:03.550Z,5543.00
2023-05-17T08:11:03.596Z,3022.00
2023-05-17T08:12:03.511Z,2137.00
2023-05-17T08:13:03.531Z,2927.00
2023-05-17T08:14:03.533Z,2200.00
2023-05-17T08:15:03.484Z,3890.00
2023-05-17T08:16:12.587Z,2499.00
2023-05-17T08:17:03.442Z,3283.00
2023-05-17T08:18:04.996Z,2605.00
2023-05-17T08:19:03.552Z,2552.00
2023-05-17T08:20:03.464Z,2756.00
2023-05-17T08:21:03.400Z,3068.00
2023-05-17T08:22:03.401Z,3415.00
2023-05-17T08:23:03.370Z,2895.00
2023-05-17T08:24:04.185Z,2256.00
2023-05-17T08:25:03.343Z,1795.00
2023-05-17T08:26:03.418Z,1585.00
2023-05-17T08:27:03.320Z,6070.00
2023-05-17T08:28:03.321Z,1937.00
2023-05-17T08:29:03.345Z,8334.00
2023-05-17T08:30:05.425Z,3137.00
2023-05-17T08:31:04.116Z,3050.00
2023-05-17T08:32:03.296Z,3158.00
2023-05-17T08:33:03.423Z,1656.00
2023-05-17T08:34:03.369Z,6464.00
2023-05-17T08:35:03.300Z,2759.00
2023-05-17T08:36:03.240Z,2832.00
2023-05-17T08:37:03.268Z,1523.00
2023-05-17T08:38:03.230Z,3994.00
2023-05-17T08:39:03.195Z,6528.00
2023-05-17T08:40:03.255Z,2994.00
2023-05-17T08:41:03.202Z,1279.00
2023-05-17T08:42:03.191Z,3149.00
2023-05-17T08:43:03.154Z,3122.00
2023-05-17T08:44:03.149Z,3183.00
2023-05-17T08:45:03.143Z,2492.00
2023-05-17T08:46:03.131Z,2859.00
2023-05-17T08:47:03.122Z,2762.00
2023-05-17T08:48:03.158Z,2682.00
2023-05-17T08:49:03.246Z,3089.00
2023-05-17T08:50:03.086Z,5518.00
2023-05-17T08:51:03.086Z,4173.00
2023-05-17T08:52:03.060Z,2478.00
2023-05-17T08:53:03.087Z,4123.00
2023-05-17T08:54:03.052Z,3257.00
2023-05-17T08:55:03.061Z,1889.00
2023-05-17T08:56:03.039Z,6585.00
2023-05-17T08:57:03.007Z,3516.00
2023-05-17T08:58:02.987Z,3227.00
2023-05-17T08:59:02.978Z,2888.00
2023-05-17T09:00:02.975Z,3107.00
2023-05-17T09:01:02.995Z,2884.00
2023-05-17T09:02:02.981Z,3012.00
2023-05-17T09:03:03.051Z,3117.00
2023-05-17T09:04:02.942Z,2882.00
2023-05-17T09:05:03.120Z,1651.00
2023-05-17T09:06:02.967Z,6555.00
2023-05-17T09:07:02.920Z,3458.00
2023-05-17T09:08:02.888Z,2577.00
2023-05-17T09:09:02.862Z,2298.00
2023-05-17T09:10:02.885Z,2214.00
2023-05-17T09:11:02.892Z,2277.00
2023-05-17T09:12:02.847Z,1957.00
2023-05-17T09:13:02.836Z,2730.00
2023-05-17T09:14:02.854Z,2248.00
2023-05-17T09:15:02.869Z,3674.00
2023-05-17T09:16:02.868Z,2134.00
2023-05-17T09:17:02.881Z,4198.00
2023-05-17T09:18:02.852Z,4118.00
2023-05-17T09:19:02.938Z,4406.00
2023-05-17T09:20:02.879Z,6313.00
2023-05-17T09:21:02.759Z,3873.00
2023-05-17T09:22:02.798Z,6785.00
2023-05-17T09:23:02.732Z,2307.00
2023-05-17T09:24:07.193Z,9390.00
2023-05-17T09:25:02.756Z,4269.00
2023-05-17T09:26:02.731Z,1857.00
2023-05-17T09:27:02.717Z,4644.00
2023-05-17T09:28:02.700Z,3836.00
2023-05-17T09:29:02.668Z,6446.00
2023-05-17T09:30:02.652Z,1753.00
2023-05-17T09:31:02.657Z,2794.00
2023-05-17T09:32:02.636Z,5649.00
2023-05-17T09:33:02.622Z,1852.00
2023-05-17T09:34:02.643Z,3045.00
2023-05-17T09:35:02.585Z,4944.00
2023-05-17T09:36:02.624Z,6289.00
2023-05-17T09:37:02.583Z,1750.00
2023-05-17T09:38:02.583Z,3104.00
2023-05-17T09:39:02.546Z,8213.00
2023-05-17T09:40:02.585Z,4257.00
2023-05-17T09:41:02.630Z,4292.00
2023-05-17T09:42:02.520Z,4391.00
2023-05-17T09:43:02.510Z,4506.00
2023-05-17T09:44:02.628Z,3621.00
2023-05-17T09:45:02.638Z,2822.00
2023-05-17T09:46:02.642Z,1327.00
2023-05-17T09:47:02.576Z,1948.00
2023-05-17T09:48:02.638Z,3107.00
2023-05-17T09:49:02.861Z,3005.00
2023-05-17T09:50:02.645Z,2970.00
2023-05-17T09:51:02.542Z,6522.00
2023-05-17T09:52:02.446Z,1588.00
2023-05-17T09:53:02.501Z,3051.00
2023-05-17T09:54:02.398Z,2795.00
2023-05-17T09:55:02.425Z,2724.00
2023-05-17T09:56:02.352Z,2778.00
2023-05-17T09:57:02.405Z,2782.00
2023-05-17T09:58:02.356Z,2896.00
2023-05-17T09:59:02.344Z,6342.00
2023-05-17T10:00:02.322Z,2815.00
2023-05-17T10:01:02.333Z,5279.00
2023-05-17T10:02:02.317Z,2235.00
2023-05-17T10:03:02.456Z,9247.00
2023-05-17T10:04:02.403Z,4197.00
2023-05-17T10:05:02.374Z,4266.00
2023-05-17T10:06:02.273Z,4866.00
2023-05-17T10:07:02.261Z,4630.00
2023-05-17T10:08:02.279Z,4272.00
2023-05-17T10:09:02.295Z,2085.00
2023-05-17T10:10:02.268Z,8595.00
2023-05-17T10:11:02.228Z,2276.00
2023-05-17T10:12:02.190Z,5355.00
2023-05-17T10:13:02.195Z,5133.00
2023-05-17T10:14:02.200Z,4426.00
2023-05-17T10:15:02.201Z,6140.00
2023-05-17T10:16:02.146Z,7575.00
2023-05-17T10:17:02.143Z,1582.00
2023-05-17T10:18:02.278Z,1976.00
2023-05-17T10:19:02.204Z,4021.00
2023-05-17T10:20:02.166Z,3622.00
2023-05-17T10:21:02.100Z,8831.00
2023-05-17T10:22:14.709Z,1884.00
2023-05-17T10:23:02.094Z,4962.00
2023-05-17T10:24:02.089Z,8821.00
2023-05-17T10:25:02.118Z,2067.00
2023-05-17T10:26:02.037Z,4835.00
2023-05-17T10:27:02.066Z,4467.00
2023-05-17T10:28:02.026Z,4041.00
2023-05-17T10:29:02.030Z,4568.00
2023-05-17T10:30:02.118Z,5014.00
2023-05-17T10:31:02.065Z,10141.00
2023-05-17T10:32:02.033Z,5333.00
2023-05-17T10:33:02.106Z,4794.00
2023-05-17T10:34:01.999Z,4433.00
2023-05-17T10:35:11.530Z,4190.00
2023-05-17T10:36:01.934Z,1826.00
2023-05-17T10:37:01.961Z,4211.00
2023-05-17T10:38:01.920Z,4236.00
2023-05-17T10:39:01.933Z,4567.00
2023-05-17T10:40:02.576Z,5360.00
2023-05-17T10:41:02.273Z,5121.00
2023-05-17T10:42:13.333Z,4614.00
2023-05-17T10:43:01.899Z,4814.00
2023-05-17T10:44:01.952Z,10076.00
2023-05-17T10:45:01.899Z,5378.00
2023-05-17T10:46:01.830Z,3574.00
2023-05-17T10:47:01.842Z,5752.00
2023-05-17T10:48:01.843Z,3128.00
2023-05-17T10:49:02.038Z,2309.00
2023-05-17T10:50:01.812Z,9752.00
2023-05-17T10:51:02.193Z,5463.00
2023-05-17T10:52:01.789Z,5405.00
2023-05-17T10:53:01.789Z,2830.00
2023-05-17T10:54:01.763Z,11653.00
2023-05-17T10:55:01.886Z,6019.00
2023-05-17T10:56:01.730Z,6446.00
2023-05-17T10:57:01.722Z,5202.00
2023-05-17T10:58:01.796Z,2793.00
2023-05-17T10:59:01.721Z,5632.00
2023-05-17T11:00:01.730Z,6297.00
2023-05-17T11:01:01.685Z,4849.00
2023-05-17T11:02:01.690Z,3952.00
2023-05-17T11:03:01.718Z,1816.00
2023-05-17T11:04:01.667Z,3713.00
2023-05-17T11:05:01.671Z,8905.00
2023-05-17T11:06:02.136Z,2513.00
2023-05-17T11:07:03.794Z,11072.00
2023-05-17T11:08:01.594Z,4927.00
2023-05-17T11:09:01.618Z,2598.00
2023-05-17T11:10:01.579Z,5913.00
2023-05-17T11:11:01.593Z,6278.00
2023-05-17T11:12:01.575Z,5059.00
2023-05-17T11:13:01.581Z,4318.00
2023-05-17T11:14:01.562Z,5322.00
2023-05-17T11:15:01.553Z,7706.00
2023-05-17T11:16:01.541Z,2224.00
2023-05-17T11:17:01.518Z,6678.00
2023-05-17T11:18:01.668Z,4311.00
2023-05-17T11:19:01.696Z,8654.00
2023-05-17T11:20:01.715Z,2566.00
2023-05-17T11:21:01.652Z,4166.00
2023-05-17T11:22:01.468Z,8466.00
2023-05-17T11:23:01.460Z,6849.00
2023-05-17T11:24:01.444Z,4610.00
2023-05-17T11:25:01.452Z,7316.00
2023-05-17T11:26:12.914Z,6519.00
2023-05-17T11:27:01.418Z,6449.00
2023-05-17T11:28:01.409Z,5938.00
2023-05-17T11:29:01.373Z,6737.00
2023-05-17T11:30:01.376Z,2329.00
2023-05-17T11:31:01.441Z,5361.00
2023-05-17T11:32:01.333Z,5213.00
2023-05-17T11:33:01.435Z,4073.00
2023-05-17T11:34:01.353Z,8916.00
2023-05-17T11:35:01.362Z,3664.00
2023-05-17T11:36:01.310Z,2850.00
2023-05-17T11:37:01.305Z,4255.00
2023-05-17T11:38:01.346Z,6381.00
2023-05-17T11:40:01.273Z,10349.00
2023-05-17T11:41:01.273Z,7200.00
2023-05-17T11:42:01.272Z,2634.00
2023-05-17T11:43:01.236Z,11876.00
2023-05-17T11:44:01.219Z,7436.00
2023-05-17T11:45:01.215Z,3810.00
2023-05-17T11:46:01.228Z,3897.00
2023-05-17T11:47:01.207Z,6569.00
2023-05-17T11:48:01.285Z,5349.00
2023-05-17T11:49:01.165Z,5481.00
2023-05-17T11:50:01.142Z,5953.00
2023-05-17T11:51:02.306Z,5064.00
2023-05-17T11:52:01.167Z,6214.00
2023-05-17T11:53:01.122Z,7692.00
2023-05-17T11:54:01.125Z,6466.00
2023-05-17T11:55:01.094Z,9509.00
2023-05-17T11:56:01.060Z,8098.00
2023-05-17T11:57:01.089Z,6530.00
2023-05-17T11:58:01.054Z,6682.00
2023-05-17T11:59:01.064Z,6859.00
2023-05-17T12:00:01.032Z,5763.00
2023-05-17T12:01:01.031Z,2390.00
2023-05-17T12:02:01.016Z,5438.00
2023-05-17T12:03:01.220Z,9587.00
2023-05-17T12:04:01.029Z,5663.00
2023-05-17T12:05:01.125Z,2007.00
2023-05-17T12:06:01.026Z,5247.00
2023-05-17T12:07:00.946Z,5497.00
2023-05-17T12:08:00.960Z,5097.00
2023-05-17T12:09:00.938Z,6450.00
2023-05-17T12:10:00.909Z,4006.00
2023-05-17T12:11:00.938Z,11306.00
2023-05-17T12:12:00.914Z,5146.00
2023-05-17T12:13:00.990Z,2781.00
2023-05-17T12:14:00.873Z,6789.00
2023-05-17T12:15:00.887Z,7145.00
2023-05-17T12:16:00.879Z,7787.00
2023-05-17T12:17:00.876Z,6637.00
2023-05-17T12:18:01.013Z,6523.00
2023-05-17T12:19:01.010Z,6134.00
2023-05-17T12:20:00.886Z,6210.00
2023-05-17T12:21:00.820Z,12521.00
2023-05-17T12:22:00.820Z,7695.00
2023-05-17T12:23:00.848Z,4522.00
2023-05-17T12:24:00.930Z,4433.00
2023-05-17T12:25:00.806Z,7200.00
2023-05-17T12:26:00.750Z,6319.00
2023-05-17T12:27:00.750Z,5763.00
2023-05-17T12:28:00.745Z,5692.00
2023-05-17T12:29:00.774Z,5697.00